Honea Path, South Carolina
Current Conditions -  °F | °C
As of 6:56 AM on Sunday 23 Nov 2014 (Local Time) from KAND Reporting Station
Light Rain Light Rain  
Wind Chill:   Ceiling: 700
Heat Index:   Visibility: 10mi
Dew Point:   Wind: 9mph
Humidity: 93%   Direction: 40°NE
Pressure: 30.15"   Gusts: NA
Location:  34.45°N, 82.39°W
Report Text: KAND 231156Z AUTO 04008KT 10SM -RA OVC007 06/05 A3015 RMK AO2 SLP211 P0004 60016 70016 T00610050 10100 20061 56020
Loading
Personal Weather Stations






























Interactive Weather Map New forecast layout! Learn more

10-Day Weather Forecast

Advertisements
Track Severe Weather on mobile